createdAt,value
2019-02-24T00:02:23.430Z,24.10
2019-02-24T00:07:28.904Z,27.73
2019-02-24T00:12:34.655Z,30.63
2019-02-24T00:17:40.117Z,26.97
2019-02-24T00:22:45.903Z,32.00
2019-02-24T00:27:51.367Z,26.47
2019-02-24T00:32:56.947Z,24.13
2019-02-24T00:38:02.407Z,32.87
2019-02-24T00:43:07.986Z,28.10
2019-02-24T00:48:13.452Z,35.73
2019-02-24T00:53:18.911Z,26.23
2019-02-24T00:58:24.394Z,36.33
2019-02-24T01:03:29.878Z,34.77
2019-02-24T01:08:35.700Z,28.20
2019-02-24T01:13:41.158Z,33.87
2019-02-24T01:18:46.622Z,36.13
2019-02-24T01:23:52.102Z,30.13
2019-02-24T01:28:57.629Z,32.23
2019-02-24T01:34:03.505Z,29.97
2019-02-24T01:39:08.966Z,32.70
2019-02-24T01:44:14.442Z,33.03
2019-02-24T01:49:19.889Z,37.43
2019-02-24T01:54:25.367Z,27.60
2019-02-24T01:59:31.330Z,32.73
2019-02-24T02:04:37.169Z,26.23
2019-02-24T02:09:42.661Z,24.47
2019-02-24T02:14:48.186Z,26.00
2019-02-24T02:19:53.649Z,32.03
2019-02-24T02:24:59.123Z,27.93
2019-02-24T02:30:06.079Z,31.63
2019-02-24T02:35:11.607Z,29.63
2019-02-24T02:40:17.413Z,23.83
2019-02-24T02:45:22.864Z,23.27
2019-02-24T02:50:28.328Z,31.73
2019-02-24T02:55:34.183Z,28.00
2019-02-24T03:00:39.975Z,32.00
2019-02-24T03:05:49.515Z,31.37
2019-02-24T03:10:54.975Z,29.27
2019-02-24T03:16:00.435Z,26.73
2019-02-24T03:21:06.263Z,26.17
2019-02-24T03:26:12.010Z,28.50
2019-02-24T03:31:17.457Z,30.27
2019-02-24T03:36:22.907Z,28.83
2019-02-24T03:41:28.691Z,26.77
2019-02-24T03:46:34.464Z,27.37
2019-02-24T03:51:40.088Z,28.43
2019-02-24T03:56:45.875Z,28.80
2019-02-24T04:01:52.022Z,27.27
2019-02-24T04:06:57.478Z,32.03
2019-02-24T04:12:02.933Z,24.33
2019-02-24T04:17:08.383Z,21.23
2019-02-24T04:22:13.824Z,27.27
2019-02-24T04:27:19.272Z,26.17
2019-02-24T04:32:25.088Z,25.93
2019-02-24T04:37:30.526Z,22.00
2019-02-24T04:42:35.967Z,30.67
2019-02-24T04:47:41.413Z,20.33
2019-02-24T04:52:46.874Z,28.10
2019-02-24T04:57:52.333Z,21.87
2019-02-24T05:02:57.854Z,18.30
2019-02-24T05:08:03.505Z,26.50
2019-02-24T05:13:09.370Z,27.80
2019-02-24T05:18:14.821Z,25.03
2019-02-24T05:23:20.272Z,23.17
2019-02-24T05:28:25.719Z,22.80
2019-02-24T05:33:31.198Z,26.83
2019-02-24T05:38:36.657Z,24.83
2019-02-24T05:43:42.097Z,20.20
2019-02-24T05:48:47.905Z,26.80
2019-02-24T05:53:53.381Z,22.60
2019-02-24T05:58:59.202Z,23.93
2019-02-24T06:04:05.023Z,20.67
2019-02-24T06:09:10.442Z,21.57
2019-02-24T06:14:15.893Z,20.07
2019-02-24T06:19:21.341Z,18.60
2019-02-24T06:24:27.083Z,24.63
2019-02-24T06:29:32.874Z,21.90
2019-02-24T06:34:38.334Z,19.70
2019-02-24T06:39:43.792Z,17.47
2019-02-24T06:44:49.938Z,23.23
2019-02-24T06:49:55.423Z,25.57
2019-02-24T06:55:00.863Z,25.57
2019-02-24T07:00:13.793Z,22.50
2019-02-24T07:05:12.922Z,23.70
2019-02-24T07:10:18.371Z,28.33
2019-02-24T07:15:23.843Z,23.77
2019-02-24T07:20:29.302Z,25.97
2019-02-24T07:25:34.732Z,26.70
2019-02-24T07:30:40.154Z,29.23
2019-02-24T07:35:45.679Z,22.27
2019-02-24T07:40:51.443Z,24.27
2019-02-24T07:45:56.929Z,24.33
2019-02-24T07:51:02.407Z,24.27
2019-02-24T07:56:07.853Z,24.57
2019-02-24T08:01:13.310Z,22.57
2019-02-24T08:06:18.779Z,27.53
2019-02-24T08:11:24.241Z,26.27
2019-02-24T08:16:29.666Z,22.93
2019-02-24T08:21:35.104Z,21.20
2019-02-24T08:26:40.562Z,23.43
2019-02-24T08:31:45.997Z,23.87
2019-02-24T08:36:51.454Z,26.83
2019-02-24T08:41:56.914Z,28.80
2019-02-24T08:47:02.745Z,24.47
2019-02-24T08:52:08.206Z,28.57
2019-02-24T08:57:14.152Z,26.47
2019-02-24T09:02:19.613Z,22.93
2019-02-24T09:07:25.070Z,20.60
2019-02-24T09:12:30.524Z,23.70
2019-02-24T09:17:36.024Z,27.03
2019-02-24T09:22:41.838Z,23.67
2019-02-24T09:27:47.310Z,20.60
2019-02-24T09:32:53.098Z,23.03
2019-02-24T09:37:58.629Z,18.70
2019-02-24T09:43:04.495Z,21.67
2019-02-24T09:48:10.542Z,24.17
2019-02-24T09:53:16.041Z,22.07
2019-02-24T09:58:21.480Z,20.80
2019-02-24T10:03:26.922Z,23.43
2019-02-24T10:08:32.368Z,23.87
2019-02-24T10:13:37.898Z,19.17
2019-02-24T10:18:43.334Z,23.63
2019-02-24T10:23:48.807Z,19.03
2019-02-24T10:28:54.268Z,19.93
2019-02-24T10:34:00.126Z,21.23
2019-02-24T10:39:06.235Z,24.17
2019-02-24T10:44:12.375Z,21.77
2019-02-24T10:49:18.187Z,25.13
2019-02-24T10:54:23.623Z,19.60
2019-02-24T10:59:29.500Z,19.83
2019-02-24T11:04:34.953Z,19.00
2019-02-24T11:09:40.379Z,20.90
2019-02-24T11:14:45.806Z,22.03
2019-02-24T11:19:51.263Z,20.10
2019-02-24T11:24:56.764Z,18.27
2019-02-24T11:30:05.622Z,21.67
2019-02-24T11:35:11.452Z,18.77
2019-02-24T11:40:17.274Z,21.93
2019-02-24T11:45:22.724Z,18.43
2019-02-24T11:50:28.386Z,15.10
2019-02-24T11:55:33.851Z,18.60
2019-02-24T12:00:39.655Z,18.90
2019-02-24T12:05:45.168Z,15.30
2019-02-24T12:10:51.032Z,19.77
2019-02-24T12:15:56.588Z,15.70
2019-02-24T12:21:02.809Z,17.97
2019-02-24T12:26:08.275Z,16.97
2019-02-24T12:31:13.705Z,19.53
2019-02-24T12:36:19.167Z,18.37
2019-02-24T12:41:24.606Z,16.20
2019-02-24T12:46:30.066Z,19.00
2019-02-24T12:51:35.854Z,15.67
2019-02-24T12:56:41.299Z,14.83
2019-02-24T13:01:46.734Z,17.40
2019-02-24T13:06:52.530Z,16.40
2019-02-24T13:11:58.395Z,12.87
2019-02-24T13:17:03.850Z,15.13
2019-02-24T13:22:09.315Z,17.07
2019-02-24T13:27:14.762Z,15.43
2019-02-24T13:32:21.253Z,17.33
2019-02-24T13:37:26.698Z,20.17
2019-02-24T13:42:32.495Z,17.07
2019-02-24T13:47:38.639Z,14.10
2019-02-24T13:52:44.095Z,17.70
2019-02-24T13:57:50.274Z,14.63
2019-02-24T14:02:55.749Z,13.50
2019-02-24T14:08:01.218Z,13.83
2019-02-24T14:13:07.009Z,16.07
2019-02-24T14:18:12.512Z,11.23
2019-02-24T14:23:17.962Z,13.67
2019-02-24T14:28:24.091Z,11.83
2019-02-24T14:33:29.544Z,11.83
2019-02-24T14:38:35.319Z,20.90
2019-02-24T14:43:40.802Z,16.57
2019-02-24T14:48:46.247Z,11.83
2019-02-24T14:53:52.106Z,14.07
2019-02-24T14:58:57.558Z,11.17
2019-02-24T15:04:03.001Z,10.70
2019-02-24T15:09:08.804Z,14.03
2019-02-24T15:14:14.262Z,14.03
2019-02-24T15:19:19.697Z,13.03
2019-02-24T15:24:25.157Z,12.23
2019-02-24T15:29:30.598Z,13.63
2019-02-24T15:34:36.047Z,12.07
2019-02-24T15:39:41.535Z,13.80
2019-02-24T15:44:46.990Z,11.57
2019-02-24T15:49:52.435Z,15.20
2019-02-24T15:54:58.580Z,13.77
2019-02-24T16:00:04.181Z,19.73
2019-02-24T16:05:10.048Z,13.90
2019-02-24T16:10:16.854Z,13.70
2019-02-24T16:15:22.324Z,13.67
2019-02-24T16:20:28.211Z,10.37
2019-02-24T16:25:33.672Z,11.20
2019-02-24T16:30:39.798Z,12.47
2019-02-24T16:35:45.571Z,13.03
2019-02-24T16:40:51.365Z,13.83
2019-02-24T16:45:56.820Z,11.20
2019-02-24T16:51:02.600Z,10.73
2019-02-24T16:56:08.707Z,12.00
2019-02-24T17:01:14.174Z,14.97
2019-02-24T17:06:20.278Z,12.27
2019-02-24T17:11:26.081Z,10.40
2019-02-24T17:16:31.522Z,14.07
2019-02-24T17:21:36.959Z,13.47
2019-02-24T17:26:42.383Z,15.13
2019-02-24T17:31:47.854Z,14.00
2019-02-24T17:36:53.319Z,12.77
2019-02-24T17:41:59.478Z,18.70
2019-02-24T17:47:05.242Z,24.20
2019-02-24T17:52:10.675Z,28.07
2019-02-24T17:57:16.507Z,24.03
2019-02-24T18:02:22.297Z,29.93
2019-02-24T18:07:28.102Z,26.37
2019-02-24T18:12:33.591Z,28.30
2019-02-24T18:17:39.419Z,71.27
2019-02-24T18:22:45.141Z,125.37
2019-02-24T18:27:50.990Z,122.20
2019-02-24T18:32:56.871Z,135.80
2019-02-24T18:38:02.674Z,112.33
2019-02-24T18:43:08.177Z,103.90
2019-02-24T18:48:13.619Z,87.63
2019-02-24T18:53:19.195Z,71.00
2019-02-24T18:58:24.667Z,69.70
2019-02-24T19:03:30.202Z,69.07
2019-02-24T19:08:36.060Z,60.80
2019-02-24T19:13:41.652Z,67.80
2019-02-24T19:18:47.155Z,57.47
2019-02-24T19:23:53.991Z,46.20
2019-02-24T19:29:00.770Z,41.97
2019-02-24T19:34:07.165Z,33.73
2019-02-24T19:39:14.928Z,35.03
2019-02-24T19:44:20.430Z,36.97
2019-02-24T19:49:25.921Z,37.93
2019-02-24T19:54:34.814Z,41.43
2019-02-24T19:59:40.318Z,31.43
2019-02-24T20:04:45.752Z,34.77
2019-02-24T20:09:51.212Z,39.17
2019-02-24T20:14:56.755Z,32.07
2019-02-24T20:20:02.311Z,27.80
2019-02-24T20:25:09.098Z,28.70
2019-02-24T20:30:21.050Z,29.47
2019-02-24T20:35:26.730Z,32.20
2019-02-24T20:40:32.203Z,30.23
2019-02-24T20:45:37.674Z,32.03
2019-02-24T20:50:43.143Z,26.53
2019-02-24T20:55:48.620Z,26.47
2019-02-24T21:00:54.801Z,30.07
2019-02-24T21:06:00.329Z,31.93
2019-02-24T21:11:06.130Z,27.67
2019-02-24T21:16:11.599Z,27.40
2019-02-24T21:21:17.404Z,32.60
2019-02-24T21:26:22.924Z,32.57
2019-02-24T21:31:28.744Z,37.47
2019-02-24T21:36:34.182Z,34.60
2019-02-24T21:41:40.042Z,34.50
2019-02-24T21:46:45.488Z,37.07
2019-02-24T21:51:50.977Z,31.30
2019-02-24T21:56:56.450Z,26.50
2019-02-24T22:02:01.905Z,28.00
2019-02-24T22:07:07.395Z,27.70
2019-02-24T22:12:12.924Z,23.10
2019-02-24T22:17:18.464Z,24.37
2019-02-24T22:22:24.250Z,34.03
2019-02-24T22:27:30.148Z,32.73
2019-02-24T22:32:36.295Z,37.23
2019-02-24T22:37:42.128Z,34.10
2019-02-24T22:42:47.942Z,36.23
2019-02-24T22:47:53.406Z,43.20
2019-02-24T22:52:58.973Z,45.87
2019-02-24T22:58:05.098Z,49.73
2019-02-24T23:03:11.222Z,46.73
2019-02-24T23:08:16.991Z,54.67
2019-02-24T23:13:22.794Z,44.40
2019-02-24T23:18:29.246Z,37.27
2019-02-24T23:23:34.694Z,35.07
2019-02-24T23:28:40.127Z,35.70
2019-02-24T23:33:45.593Z,29.23
2019-02-24T23:38:51.030Z,37.73
2019-02-24T23:43:56.514Z,35.83
2019-02-24T23:49:02.038Z,33.90
2019-02-24T23:54:07.491Z,35.07
2019-02-24T23:59:13.295Z,33.77
